Portada
METAR-TAF:

METAR-TAF

Aeroports :

Johnson County Executive Airport

Olathe, Kansas, Estats Units d'Amèrica

latitud: 38-51-00N, longitud: 094-44-21W, altitud: 334 m

Observació

L'informe es va fer fa 53 minuts, a les 13:53 UTC
Vent 11 kt del Sud amb ràfegues de 18 kt
Temperatura -6°C
Humitat 79%
Pressió 1018 hPa
Visibilitat: 16.1 km
Cel clar

METAR: KOJC 131353Z 19011G18KT 10SM CLR M06/M09 A3006 RMK AO2 SLP194 T10561094

Hora: 08:46 (14:46 UTC)


TAF: manca

Observacions i pronòstics meteorològics de més de 4000 aeroports (METAR i TAF).

Les estacions disponibles són els punts grocs i vermells al mapa.

Posi el ratolí al punt desitjat per veure el nom de l'estació.

Feu clic per veure les observacions i els pronòstics meteorològics.

Per canviar el mapa: feu clic els botons verds amb una creu de color negre per apropar; al botó verd amb un guió per allunyar la imatge; o en les fletxes verdes per a mapes adjacents.


METAR-TAF: